Menalon — SXCH — position and weather

sailwx.info

Track history (hours):
 
Tides and Currents Weather Stations Pressure Air Temp Water Temp Dewpoint Dewpoint Depression Visibility Wind Speed Wind Dir Waves Ship Positions

Menalon

Last reported at 2016-Sep-25 17:34 UTC. Time now 2016-Sep-25 20:56 UTC.
Position N 37°56' E 023°34'.

Length 83 m; draft 3.5 m.

Type: Ship (hazmat cat C). MMSI: 239741000.

Date/timePositionNaut miles runAvg speedWind from/ knotsBaromVisibWave heightAir tempDewpointWater temp
2016-Sep-25 17:34N 37°56' E 023°34'0 0.0
2016-Sep-25 16:33N 37°56' E 023°34'0 0.0
2016-Sep-25 15:33N 37°56' E 023°34'0 0.1
2016-Sep-25 14:33N 37°56' E 023°34'0 0.0
2016-Sep-25 12:33N 37°56' E 023°34'0 0.1
2016-Sep-25 11:33N 37°56' E 023°34'0 0.1
2016-Sep-25 10:33N 37°56' E 023°34'0 0.0
2016-Sep-25 09:33N 37°56' E 023°34'0 0.0
2016-Sep-25 07:33N 37°56' E 023°34'0 0.0
2016-Sep-25 04:33N 37°56' E 023°34'0 0.0
2016-Sep-25 00:33N 37°56' E 023°34'0 0.0
2016-Sep-24 22:33N 37°56' E 023°34'0 0.0
2016-Sep-24 21:33N 37°56' E 023°34'0 0.0
2016-Sep-24 19:33N 37°56' E 023°34'0 0.0
2016-Sep-24 18:33N 37°56' E 023°34'0 0.0
2016-Sep-24 17:34N 37°56' E 023°34'0 0.0
2016-Sep-24 16:33N 37°56' E 023°34'0 0.0
2016-Sep-24 14:33N 37°56' E 023°34'0 0.0
2016-Sep-24 12:33N 37°56' E 023°34'0 0.0
2016-Sep-24 10:33N 37°56' E 023°34'0 0.0
2016-Sep-24 09:33N 37°56' E 023°34'4 0.7
2016-Sep-24 03:33N 37°53' E 023°30'0 0.0
2016-Sep-24 02:33N 37°53' E 023°30'0 0.0
2016-Sep-24 01:33N 37°53' E 023°30'0 0.4
2016-Sep-24 00:33N 37°52' E 023°30'5 0.9
2016-Sep-23 19:33N 37°56' E 023°34'0 0.0
2016-Sep-23 17:33N 37°56' E 023°34'0 0.0
2016-Sep-23 16:33N 37°56' E 023°34'0 0.0
2016-Sep-23 15:33N 37°56' E 023°34'0 0.0
2016-Sep-23 13:34N 37°56' E 023°34'3 0.7
2016-Sep-23 09:33N 37°58' E 023°36'3 0.8
2016-Sep-23 06:33N 37°56' E 023°34'0 0.0
2016-Sep-23 04:33N 37°56' E 023°34'0 0.0
2016-Sep-23 03:33N 37°56' E 023°34'0 0.0
2016-Sep-23 02:33N 37°56' E 023°34'0 0.0
2016-Sep-23 01:33N 37°56' E 023°34'0 0.0
2016-Sep-23 00:33N 37°56' E 023°34'0 0.0
2016-Sep-22 23:33N 37°56' E 023°34'0 0.0
2016-Sep-22 20:33N 37°56' E 023°34'4 0.5
2016-Sep-22 12:33N 37°52' E 023°32'4 0.5
2016-Sep-22 04:33N 37°56' E 023°34'0 0.0
2016-Sep-22 03:33N 37°56' E 023°34'0 0.0
2016-Sep-22 00:33N 37°56' E 023°34'0 0.0
2016-Sep-21 23:33N 37°56' E 023°34'0 0.0
2016-Sep-21 22:33N 37°56' E 023°34'0 0.0
2016-Sep-21 19:33N 37°56' E 023°34'2 0.5
2016-Sep-21 16:33N 37°57' E 023°35'4 0.6
2016-Sep-21 09:33N 37°53' E 023°33'0 0.1
2016-Sep-21 08:33N 37°53' E 023°33'9 2.8
2016-Sep-21 05:33N 38°02' E 023°35'0 0.0
2016-Sep-21 03:33N 38°02' E 023°35'0 0.0
2016-Sep-21 02:33N 38°02' E 023°35'1 0.1
2016-Sep-20 17:34N 38°02' E 023°36'0 0.0
2016-Sep-20 14:33N 38°02' E 023°36'0 0.0
2016-Sep-20 13:33N 38°02' E 023°36'0 0.2
2016-Sep-20 10:33N 38°02' E 023°35'0 0.0
2016-Sep-20 08:33N 38°02' E 023°35'0 0.0
2016-Sep-20 07:33N 38°02' E 023°35'0 0.0
2016-Sep-20 06:34N 38°02' E 023°35'0 0.0
2016-Sep-20 02:33N 38°02' E 023°35'0 0.0
2016-Sep-19 23:33N 38°02' E 023°35'3 0.7
2016-Sep-19 19:33N 38°01' E 023°32'9 9.0
2016-Sep-19 18:33N 37°55' E 023°23'2110.5
2016-Sep-19 16:33N 37°38' E 023°39'84 1.9
2016-Sep-17 20:08N 36°15' E 023°36'8 9.7
2016-Sep-17 19:15N 36°23' E 023°36'53 9.4
2016-Sep-17 13:33N 37°17' E 023°41'10 9.6
2016-Sep-17 12:33N 37°26' E 023°42'20 9.9
2016-Sep-17 10:33N 37°46' E 023°38'8 8.3
2016-Sep-17 09:33N 37°52' E 023°31'0 0.0
2016-Sep-17 08:33N 37°52' E 023°31'0 0.0
2016-Sep-17 07:34N 37°52' E 023°31'4 2.2
2016-Sep-17 05:33N 37°56' E 023°34'0 0.1
2016-Sep-17 04:33N 37°56' E 023°34'6 1.5
2016-Sep-17 00:33N 38°02' E 023°36'0 0.0
2016-Sep-16 17:33N 38°02' E 023°36'0 0.0
2016-Sep-16 15:34N 38°02' E 023°36'0 0.0
2016-Sep-16 12:33N 38°02' E 023°36'0 0.0
2016-Sep-16 09:33N 38°02' E 023°36'0 0.0
2016-Sep-16 07:33N 38°02' E 023°36'0 0.0
2016-Sep-16 03:33N 38°02' E 023°36'0 0.0
2016-Sep-16 02:33N 38°02' E 023°36'0 0.0
2016-Sep-16 00:33N 38°02' E 023°36'1 0.3
2016-Sep-15 22:33N 38°02' E 023°35'0 0.0
2016-Sep-15 21:33N 38°02' E 023°35'0 0.1
2016-Sep-15 20:33N 38°02' E 023°35'0 0.0
2016-Sep-15 18:33N 38°02' E 023°35'  
Track history (hours):
 
Tides and Currents Weather Stations Pressure Air Temp Water Temp Dewpoint Dewpoint Depression Visibility Wind Speed Wind Dir Waves Ship Positions

Menalon

Last reported at 2016-Sep-25 17:34 UTC. Time now 2016-Sep-25 20:56 UTC.
Position N 37°56' E 023°34'.

Length 83 m; draft 3.5 m.

Type: Ship (hazmat cat C). MMSI: 239741000.

Date/timePositionNaut miles runAvg speedWind from/ knotsBaromVisibWave heightAir tempDewpointWater temp
2016-Sep-25 17:34N 37°56' E 023°34'0 0.0
2016-Sep-25 16:33N 37°56' E 023°34'0 0.0
2016-Sep-25 15:33N 37°56' E 023°34'0 0.1
2016-Sep-25 14:33N 37°56' E 023°34'0 0.0
2016-Sep-25 12:33N 37°56' E 023°34'0 0.1
2016-Sep-25 11:33N 37°56' E 023°34'0 0.1
2016-Sep-25 10:33N 37°56' E 023°34'0 0.0
2016-Sep-25 09:33N 37°56' E 023°34'0 0.0
2016-Sep-25 07:33N 37°56' E 023°34'0 0.0
2016-Sep-25 04:33N 37°56' E 023°34'0 0.0
2016-Sep-25 00:33N 37°56' E 023°34'0 0.0
2016-Sep-24 22:33N 37°56' E 023°34'0 0.0
2016-Sep-24 21:33N 37°56' E 023°34'0 0.0
2016-Sep-24 19:33N 37°56' E 023°34'0 0.0
2016-Sep-24 18:33N 37°56' E 023°34'0 0.0
2016-Sep-24 17:34N 37°56' E 023°34'0 0.0
2016-Sep-24 16:33N 37°56' E 023°34'0 0.0
2016-Sep-24 14:33N 37°56' E 023°34'0 0.0
2016-Sep-24 12:33N 37°56' E 023°34'0 0.0
2016-Sep-24 10:33N 37°56' E 023°34'0 0.0
2016-Sep-24 09:33N 37°56' E 023°34'4 0.7
2016-Sep-24 03:33N 37°53' E 023°30'0 0.0
2016-Sep-24 02:33N 37°53' E 023°30'0 0.0
2016-Sep-24 01:33N 37°53' E 023°30'0 0.4
2016-Sep-24 00:33N 37°52' E 023°30'5 0.9
2016-Sep-23 19:33N 37°56' E 023°34'0 0.0
2016-Sep-23 17:33N 37°56' E 023°34'0 0.0
2016-Sep-23 16:33N 37°56' E 023°34'0 0.0
2016-Sep-23 15:33N 37°56' E 023°34'0 0.0
2016-Sep-23 13:34N 37°56' E 023°34'3 0.7
2016-Sep-23 09:33N 37°58' E 023°36'3 0.8
2016-Sep-23 06:33N 37°56' E 023°34'0 0.0
2016-Sep-23 04:33N 37°56' E 023°34'0 0.0
2016-Sep-23 03:33N 37°56' E 023°34'0 0.0
2016-Sep-23 02:33N 37°56' E 023°34'0 0.0
2016-Sep-23 01:33N 37°56' E 023°34'0 0.0
2016-Sep-23 00:33N 37°56' E 023°34'0 0.0
2016-Sep-22 23:33N 37°56' E 023°34'0 0.0
2016-Sep-22 20:33N 37°56' E 023°34'4 0.5
2016-Sep-22 12:33N 37°52' E 023°32'4 0.5
2016-Sep-22 04:33N 37°56' E 023°34'0 0.0
2016-Sep-22 03:33N 37°56' E 023°34'0 0.0
2016-Sep-22 00:33N 37°56' E 023°34'0 0.0
2016-Sep-21 23:33N 37°56' E 023°34'0 0.0
2016-Sep-21 22:33N 37°56' E 023°34'0 0.0
2016-Sep-21 19:33N 37°56' E 023°34'2 0.5
2016-Sep-21 16:33N 37°57' E 023°35'4 0.6
2016-Sep-21 09:33N 37°53' E 023°33'0 0.1
2016-Sep-21 08:33N 37°53' E 023°33'9 2.8
2016-Sep-21 05:33N 38°02' E 023°35'0 0.0
2016-Sep-21 03:33N 38°02' E 023°35'0 0.0
2016-Sep-21 02:33N 38°02' E 023°35'1 0.1
2016-Sep-20 17:34N 38°02' E 023°36'0 0.0
2016-Sep-20 14:33N 38°02' E 023°36'0 0.0
2016-Sep-20 13:33N 38°02' E 023°36'0 0.2
2016-Sep-20 10:33N 38°02' E 023°35'0 0.0
2016-Sep-20 08:33N 38°02' E 023°35'0 0.0
2016-Sep-20 07:33N 38°02' E 023°35'0 0.0
2016-Sep-20 06:34N 38°02' E 023°35'0 0.0
2016-Sep-20 02:33N 38°02' E 023°35'0 0.0
2016-Sep-19 23:33N 38°02' E 023°35'3 0.7
2016-Sep-19 19:33N 38°01' E 023°32'9 9.0
2016-Sep-19 18:33N 37°55' E 023°23'2110.5
2016-Sep-19 16:33N 37°38' E 023°39'84 1.9
2016-Sep-17 20:08N 36°15' E 023°36'8 9.7
2016-Sep-17 19:15N 36°23' E 023°36'53 9.4
2016-Sep-17 13:33N 37°17' E 023°41'10 9.6
2016-Sep-17 12:33N 37°26' E 023°42'20 9.9
2016-Sep-17 10:33N 37°46' E 023°38'8 8.3
2016-Sep-17 09:33N 37°52' E 023°31'0 0.0
2016-Sep-17 08:33N 37°52' E 023°31'0 0.0
2016-Sep-17 07:34N 37°52' E 023°31'4 2.2
2016-Sep-17 05:33N 37°56' E 023°34'0 0.1
2016-Sep-17 04:33N 37°56' E 023°34'6 1.5
2016-Sep-17 00:33N 38°02' E 023°36'0 0.0
2016-Sep-16 17:33N 38°02' E 023°36'0 0.0
2016-Sep-16 15:34N 38°02' E 023°36'0 0.0
2016-Sep-16 12:33N 38°02' E 023°36'0 0.0
2016-Sep-16 09:33N 38°02' E 023°36'0 0.0
2016-Sep-16 07:33N 38°02' E 023°36'0 0.0
2016-Sep-16 03:33N 38°02' E 023°36'0 0.0
2016-Sep-16 02:33N 38°02' E 023°36'0 0.0
2016-Sep-16 00:33N 38°02' E 023°36'1 0.3
2016-Sep-15 22:33N 38°02' E 023°35'0 0.0
2016-Sep-15 21:33N 38°02' E 023°35'0 0.1
2016-Sep-15 20:33N 38°02' E 023°35'0 0.0
2016-Sep-15 18:33N 38°02' E 023°35'  

Dump ship's entire track history